Time;durP1;ratioP1;P1;durP2;ratioP2;P2;SDS_P1;SDS_P2;PMS_P1;PMS_P2;Temp;Humidity;BMP_temperature;BMP_pressure;BME280_temperature;BME280_humidity;BME280_pressure;Samples;Min_cycle;Max_cycle;Signal;HPM_P1;HPM_P2
2022/03/10 19:45:26;;;;;;;;;19.25;15.25;;;;;17.77;46.92;101233.13;5064520;27;45396;-76
2022/03/10 19:47:52;;;;;;;;;14.50;11.25;;;;;17.92;46.59;101237.28;5054651;28;45588;-75
2022/03/10 19:50:18;;;;;;;;;17.00;14.75;;;;;18.14;46.77;101237.47;5056292;28;46590;-77
2022/03/10 19:52:43;;;;;;;;;12.75;11.75;;;;;18.32;46.69;101228.97;5056940;28;45573;-79
2022/03/10 19:55:12;;;;;;;;;15.00;14.25;;;;;18.59;46.59;101233.94;5060956;28;46300;-79
2022/03/10 19:57:38;;;;;;;;;14.25;12.00;;;;;18.84;46.05;101234.66;5059887;28;45523;-79
2022/03/10 20:00:06;;;;;;;;;15.00;13.50;;;;;19.11;46.12;101227.16;5058198;28;45495;-79
2022/03/10 20:02:32;;;;;;;;;13.50;12.50;;;;;19.37;46.00;101224.97;5056765;28;46021;-76
2022/03/10 20:04:57;;;;;;;;;13.75;13.75;;;;;19.61;45.23;101235.53;5055934;28;46473;-77
2022/03/10 20:07:22;;;;;;;;;11.75;11.75;;;;;19.89;45.33;101235.00;5055901;28;45436;-78
2022/03/10 20:09:47;;;;;;;;;15.00;13.75;;;;;20.12;45.43;101224.94;5060030;28;48096;-77
2022/03/10 20:12:13;;;;;;;;;16.25;13.00;;;;;20.37;44.80;101230.03;5068473;28;45886;-77
2022/03/10 20:14:38;;;;;;;;;15.25;12.50;;;;;20.59;44.83;101226.28;5060398;28;46224;-76
2022/03/10 20:17:04;;;;;;;;;17.00;13.75;;;;;20.82;44.56;101231.47;5056354;27;45426;-74
2022/03/10 20:19:29;;;;;;;;;14.00;14.00;;;;;21.02;44.28;101234.22;5050346;28;45348;-76
2022/03/10 20:21:55;;;;;;;;;16.25;14.25;;;;;21.20;44.20;101226.28;5052150;27;45478;-75
2022/03/10 20:24:20;;;;;;;;;17.25;15.75;;;;;21.36;43.66;101225.72;5058570;27;46000;-74
2022/03/10 20:26:45;;;;;;;;;15.75;14.25;;;;;21.49;43.19;101227.28;5062429;27;45582;-76
2022/03/10 20:29:11;;;;;;;;;11.50;11.50;;;;;21.64;43.35;101235.78;5053255;28;45527;-74
2022/03/10 20:31:38;;;;;;;;;15.00;11.25;;;;;21.76;42.89;101226.56;5054630;28;45566;-72
2022/03/10 20:34:04;;;;;;;;;17.00;14.50;;;;;21.83;42.99;101208.75;5054362;28;46988;-72
2022/03/10 20:36:29;;;;;;;;;13.25;11.75;;;;;21.94;42.79;101220.41;5051467;28;45533;-73
2022/03/10 20:38:54;;;;;;;;;12.25;12.25;;;;;22.01;43.18;101218.81;5056863;28;45564;-73
2022/03/10 20:41:21;;;;;;;;;18.50;13.25;;;;;22.07;42.99;101225.50;5049889;28;45424;-75
2022/03/10 20:43:53;;;;;;;;;14.00;12.33;;;;;22.15;42.96;101227.47;5053295;28;46109;-74
2022/03/10 20:46:20;;;;;;;;;15.25;12.00;;;;;22.20;42.89;101228.72;5063876;28;45538;-74
2022/03/10 20:48:46;;;;;;;;;12.00;12.00;;;;;22.24;42.94;101218.47;5062121;28;45444;-74
2022/03/10 20:51:14;;;;;;;;;13.33;9.67;;;;;22.27;42.53;101214.63;5061912;27;45666;-73
2022/03/10 20:53:39;;;;;;;;;12.33;11.00;;;;;22.29;42.59;101210.75;5066118;28;45947;-74
2022/03/10 20:56:04;;;;;;;;;14.75;14.25;;;;;22.35;42.44;101212.00;5047310;28;61069;-74
2022/03/10 20:58:30;;;;;;;;;14.75;12.00;;;;;22.38;42.54;101209.00;5050196;28;45512;-74
2022/03/10 21:00:55;;;;;;;;;18.00;13.33;;;;;22.38;42.45;101204.47;5048489;28;45364;-74
2022/03/10 21:03:20;;;;;;;;;15.50;12.00;;;;;22.39;42.67;101205.28;5045853;28;45261;-74
2022/03/10 21:05:46;;;;;;;;;14.00;13.00;;;;;22.43;42.69;101201.28;5055262;28;45438;-73
2022/03/10 21:08:11;;;;;;;;;13.33;11.67;;;;;22.44;42.18;101194.03;5037425;28;45332;-75
2022/03/10 21:10:37;;;;;;;;;12.67;12.67;;;;;22.46;42.40;101197.44;5042247;28;45387;-73
2022/03/10 21:13:04;;;;;;;;;13.33;13.00;;;;;22.48;42.81;101198.16;5037158;28;45632;-74
2022/03/10 21:15:30;;;;;;;;;14.00;12.67;;;;;22.47;42.60;101191.88;5034889;28;45492;-73
2022/03/10 21:17:55;;;;;;;;;11.67;11.67;;;;;22.48;42.69;101193.56;5045706;28;45472;-73
2022/03/10 21:20:20;;;;;;;;;12.00;11.33;;;;;22.51;42.15;101200.53;5039252;28;45497;-73
2022/03/10 21:22:46;;;;;;;;;10.67;10.67;;;;;22.50;42.40;101198.84;5042538;28;45972;-73
2022/03/10 21:25:11;;;;;;;;;12.67;12.67;;;;;22.53;42.55;101200.38;5042347;28;45578;-73
2022/03/10 21:27:36;;;;;;;;;15.33;12.67;;;;;22.49;42.26;101189.88;5051379;28;45470;-75
2022/03/10 21:30:03;;;;;;;;;13.33;12.67;;;;;22.55;42.92;101196.56;5042372;28;47989;-73
2022/03/10 21:32:28;;;;;;;;;11.67;11.33;;;;;22.57;42.66;101193.72;5040891;28;46542;-72
2022/03/10 21:34:53;;;;;;;;;16.33;13.67;;;;;22.57;42.41;101191.00;5047901;28;45442;-74
2022/03/10 21:37:19;;;;;;;;;14.00;11.33;;;;;22.56;42.66;101179.31;5045837;28;45872;-74
2022/03/10 21:39:44;;;;;;;;;13.00;11.67;;;;;22.56;43.04;101190.16;5045847;28;45426;-74
2022/03/10 21:42:10;;;;;;;;;18.33;11.33;;;;;22.57;42.34;101180.19;5046083;28;46320;-75
2022/03/10 21:44:37;;;;;;;;;12.33;10.67;;;;;22.58;42.63;101171.94;5046049;28;45856;-74
2022/03/10 21:47:04;;;;;;;;;12.33;10.67;;;;;22.58;42.62;101176.47;5047484;28;45893;-73
2022/03/10 21:49:29;;;;;;;;;10.67;9.33;;;;;22.60;42.43;101177.19;5039411;28;45502;-73
2022/03/10 21:51:55;;;;;;;;;19.67;14.00;;;;;22.60;42.62;101175.31;5038805;28;46155;-74
2022/03/10 21:54:20;;;;;;;;;11.67;11.33;;;;;22.61;42.87;101168.91;5037460;28;45426;-73
2022/03/10 21:56:46;;;;;;;;;12.67;11.00;;;;;22.62;42.85;101161.63;5037678;28;45716;-73
2022/03/10 21:59:11;;;;;;;;;16.33;13.00;;;;;22.63;42.83;101155.22;5041701;28;46108;-73
2022/03/10 22:01:37;;;;;;;;;13.00;13.00;;;;;22.63;42.42;101152.50;5041731;28;46238;-73
2022/03/10 22:04:03;;;;;;;;;13.00;11.33;;;;;22.65;42.73;101153.22;5046251;28;45881;-72
2022/03/10 22:06:33;;;;;;;;;15.33;11.00;;;;;22.62;42.94;101146.28;5035991;28;45481;-74
2022/03/10 22:08:58;;;;;;;;;12.00;10.00;;;;;22.66;42.76;101141.41;5034698;28;45281;-73
